createdAt,value
2022-12-27T00:00:54.871Z,100.00
2022-12-27T00:03:22.885Z,100.00
2022-12-27T00:05:50.785Z,100.00
2022-12-27T00:08:18.731Z,100.00
2022-12-27T00:10:46.495Z,100.00
2022-12-27T00:13:14.510Z,100.00
2022-12-27T00:15:42.480Z,100.00
2022-12-27T00:18:10.323Z,100.00
2022-12-27T00:20:38.249Z,100.00
2022-12-27T00:23:07.096Z,100.00
2022-12-27T00:25:34.923Z,100.00
2022-12-27T00:28:02.958Z,100.00
2022-12-27T00:30:32.403Z,100.00
2022-12-27T00:33:00.481Z,100.00
2022-12-27T00:35:28.300Z,100.00
2022-12-27T00:37:56.294Z,100.00
2022-12-27T00:40:24.200Z,100.00
2022-12-27T00:42:52.110Z,100.00
2022-12-27T00:45:19.992Z,100.00
2022-12-27T00:47:48.173Z,100.00
2022-12-27T00:50:15.994Z,100.00
2022-12-27T00:52:44.870Z,100.00
2022-12-27T00:55:12.773Z,100.00
2022-12-27T00:57:40.706Z,100.00
2022-12-27T01:00:10.583Z,100.00
2022-12-27T01:02:41.612Z,100.00
2022-12-27T01:05:09.571Z,100.00
2022-12-27T01:07:37.439Z,100.00
2022-12-27T01:10:05.835Z,100.00
2022-12-27T01:12:35.008Z,100.00
2022-12-27T01:15:03.831Z,100.00
2022-12-27T01:17:31.693Z,100.00
2022-12-27T01:19:59.548Z,100.00
2022-12-27T01:22:27.310Z,100.00
2022-12-27T01:24:55.311Z,100.00
2022-12-27T01:27:23.134Z,100.00
2022-12-27T01:29:51.332Z,100.00
2022-12-27T01:32:19.151Z,100.00
2022-12-27T01:34:47.294Z,100.00
2022-12-27T01:37:15.111Z,100.00
2022-12-27T01:39:43.006Z,100.00
2022-12-27T01:42:36.532Z,100.00
2022-12-27T01:45:18.501Z,100.00
2022-12-27T01:47:51.975Z,100.00
2022-12-27T01:50:27.050Z,100.00
2022-12-27T01:53:19.029Z,100.00
2022-12-27T01:55:55.959Z,100.00
2022-12-27T01:58:27.379Z,100.00
2022-12-27T02:00:55.686Z,100.00
2022-12-27T02:03:43.788Z,100.00
2022-12-27T02:06:12.809Z,100.00
2022-12-27T02:08:44.391Z,100.00
2022-12-27T02:11:14.162Z,100.00
2022-12-27T02:13:44.299Z,100.00
2022-12-27T02:16:13.074Z,100.00
2022-12-27T02:18:41.216Z,100.00
2022-12-27T02:21:09.213Z,100.00
2022-12-27T02:24:06.965Z,100.00
2022-12-27T02:26:50.274Z,100.00
2022-12-27T02:29:20.986Z,100.00
2022-12-27T02:32:06.947Z,100.00
2022-12-27T02:34:37.749Z,100.00
2022-12-27T02:37:08.841Z,100.00
2022-12-27T02:39:38.607Z,100.00
2022-12-27T02:42:26.177Z,100.00
2022-12-27T02:45:12.856Z,100.00
2022-12-27T02:47:59.872Z,100.00
2022-12-27T02:50:50.186Z,100.00
2022-12-27T02:53:32.768Z,100.00
2022-12-27T02:56:55.000Z,100.00
2022-12-27T03:00:01.188Z,100.00
2022-12-27T03:02:58.267Z,100.00
2022-12-27T03:05:46.330Z,100.00
2022-12-27T03:08:21.968Z,100.00
2022-12-27T03:11:17.427Z,100.00
2022-12-27T03:14:06.867Z,100.00
2022-12-27T03:16:56.003Z,100.00
2022-12-27T03:19:48.644Z,100.00
2022-12-27T03:22:35.951Z,100.00
2022-12-27T03:25:23.407Z,100.00
2022-12-27T03:28:13.302Z,100.00
2022-12-27T03:31:00.930Z,100.00
2022-12-27T03:33:31.758Z,100.00
2022-12-27T03:36:21.956Z,100.00
2022-12-27T03:39:03.683Z,100.00
2022-12-27T03:41:54.953Z,100.00
2022-12-27T03:44:25.548Z,100.00
2022-12-27T03:46:56.543Z,100.00
2022-12-27T03:49:39.726Z,100.00
2022-12-27T03:52:17.074Z,100.00
2022-12-27T03:54:46.900Z,100.00
2022-12-27T03:57:16.185Z,100.00
2022-12-27T03:59:44.557Z,100.00
2022-12-27T04:02:12.933Z,100.00
2022-12-27T04:04:41.257Z,100.00
2022-12-27T04:07:09.104Z,100.00
2022-12-27T04:09:55.428Z,100.00
2022-12-27T04:12:42.251Z,100.00
2022-12-27T04:15:28.878Z,100.00
2022-12-27T04:18:15.831Z,100.00
2022-12-27T04:21:01.986Z,100.00
2022-12-27T04:23:48.243Z,100.00
2022-12-27T04:26:34.428Z,100.00
2022-12-27T04:29:20.656Z,100.00
2022-12-27T04:32:07.861Z,100.00
2022-12-27T04:34:42.794Z,100.00
2022-12-27T04:37:13.255Z,100.00
2022-12-27T04:39:41.281Z,100.00
2022-12-27T04:42:28.632Z,100.00
2022-12-27T04:45:15.734Z,100.00
2022-12-27T04:48:02.574Z,100.00
2022-12-27T04:50:50.354Z,100.00
2022-12-27T04:53:37.711Z,100.00
2022-12-27T04:56:06.148Z,100.00
2022-12-27T04:58:57.911Z,100.00
2022-12-27T05:01:44.338Z,100.00
2022-12-27T05:04:12.467Z,100.00
2022-12-27T05:06:40.321Z,100.00
2022-12-27T05:09:26.550Z,100.00
2022-12-27T05:12:20.396Z,100.00
2022-12-27T05:14:48.313Z,100.00
2022-12-27T05:17:16.159Z,100.00
2022-12-27T05:19:44.076Z,100.00
2022-12-27T05:22:30.358Z,100.00
2022-12-27T05:25:16.854Z,100.00
2022-12-27T05:27:44.830Z,100.00
2022-12-27T05:30:12.778Z,100.00
2022-12-27T05:32:40.918Z,100.00
2022-12-27T05:35:08.735Z,100.00
2022-12-27T05:37:36.699Z,100.00
2022-12-27T05:40:04.630Z,100.00
2022-12-27T05:42:32.785Z,100.00
2022-12-27T05:45:00.997Z,100.00
2022-12-27T05:47:29.035Z,100.00
2022-12-27T05:49:56.838Z,100.00
2022-12-27T05:52:24.852Z,100.00
2022-12-27T05:54:53.286Z,100.00
2022-12-27T05:57:21.219Z,100.00
2022-12-27T05:59:49.373Z,100.00
2022-12-27T06:02:17.683Z,100.00
2022-12-27T06:04:45.559Z,100.00
2022-12-27T06:07:14.011Z,100.00
2022-12-27T06:09:41.830Z,100.00
2022-12-27T06:12:09.826Z,100.00
2022-12-27T06:14:37.937Z,100.00
2022-12-27T06:17:05.867Z,100.00
2022-12-27T06:19:33.791Z,100.00
2022-12-27T06:22:01.672Z,100.00
2022-12-27T06:24:29.518Z,100.00
2022-12-27T06:27:00.259Z,100.00
2022-12-27T06:29:28.928Z,100.00
2022-12-27T06:31:56.832Z,100.00
2022-12-27T06:34:24.952Z,100.00
2022-12-27T06:36:52.891Z,100.00
2022-12-27T06:39:20.920Z,100.00
2022-12-27T06:41:50.651Z,100.00
2022-12-27T06:44:18.993Z,100.00
2022-12-27T06:46:46.911Z,100.00
2022-12-27T06:49:15.111Z,100.00
2022-12-27T06:51:42.972Z,100.00
2022-12-27T06:54:10.892Z,100.00
2022-12-27T06:56:38.791Z,100.00
2022-12-27T06:59:07.239Z,100.00
2022-12-27T07:01:35.190Z,100.00
2022-12-27T07:04:03.690Z,100.00
2022-12-27T07:06:32.631Z,100.00
2022-12-27T07:09:01.333Z,100.00
2022-12-27T07:11:29.221Z,100.00
2022-12-27T07:13:57.625Z,100.00
2022-12-27T07:16:26.475Z,100.00
2022-12-27T07:18:58.502Z,100.00
2022-12-27T07:21:27.930Z,100.00
2022-12-27T07:23:56.176Z,100.00
2022-12-27T07:26:27.150Z,100.00
2022-12-27T07:28:56.390Z,100.00
2022-12-27T07:31:26.678Z,100.00
2022-12-27T07:33:54.654Z,100.00
2022-12-27T07:36:27.531Z,100.00
2022-12-27T07:38:56.371Z,100.00
2022-12-27T07:41:24.975Z,100.00
2022-12-27T07:43:54.636Z,100.00
2022-12-27T07:46:23.891Z,100.00
2022-12-27T07:48:55.839Z,100.00
2022-12-27T07:51:24.536Z,100.00
2022-12-27T07:53:52.431Z,100.00
2022-12-27T07:56:25.759Z,100.00
2022-12-27T07:58:55.625Z,100.00
2022-12-27T08:01:24.914Z,100.00
2022-12-27T08:03:53.323Z,100.00
2022-12-27T08:06:21.117Z,100.00
2022-12-27T08:08:49.693Z,100.00
2022-12-27T08:11:17.551Z,100.00
2022-12-27T08:13:46.886Z,100.00
2022-12-27T08:16:19.112Z,100.00
2022-12-27T08:18:47.251Z,100.00
2022-12-27T08:21:16.751Z,100.00
2022-12-27T08:23:45.164Z,100.00
2022-12-27T08:26:12.992Z,100.00
2022-12-27T08:28:41.316Z,100.00
2022-12-27T08:31:10.501Z,100.00
2022-12-27T08:33:39.434Z,100.00
2022-12-27T08:36:44.767Z,100.00
2022-12-27T08:38:58.633Z,100.00
2022-12-27T08:41:26.500Z,100.00
2022-12-27T08:43:54.958Z,100.00
2022-12-27T08:46:25.916Z,100.00
2022-12-27T08:48:53.997Z,100.00
2022-12-27T08:51:32.684Z,100.00
2022-12-27T08:54:06.795Z,100.00
2022-12-27T08:56:34.982Z,100.00
2022-12-27T08:59:03.856Z,100.00
2022-12-27T09:01:32.924Z,100.00
2022-12-27T09:04:01.162Z,100.00
2022-12-27T09:06:29.480Z,100.00
2022-12-27T09:08:58.160Z,100.00
2022-12-27T09:11:27.819Z,100.00
2022-12-27T09:13:56.316Z,100.00
2022-12-27T09:16:27.702Z,100.00
2022-12-27T09:18:57.276Z,100.00
2022-12-27T09:21:26.518Z,100.00
2022-12-27T09:23:54.716Z,100.00
2022-12-27T09:26:27.278Z,100.00
2022-12-27T09:28:56.299Z,100.00
2022-12-27T09:31:24.871Z,100.00
2022-12-27T09:33:53.479Z,100.00
2022-12-27T09:36:22.677Z,100.00
2022-12-27T09:38:53.063Z,100.00
2022-12-27T09:42:25.150Z,100.00
2022-12-27T09:44:27.124Z,100.00
2022-12-27T09:46:54.937Z,100.00
2022-12-27T09:49:27.903Z,100.00
2022-12-27T09:52:00.916Z,100.00
2022-12-27T09:54:40.151Z,100.00
2022-12-27T09:57:20.146Z,100.00
2022-12-27T09:59:50.374Z,100.00
2022-12-27T10:02:22.974Z,100.00
2022-12-27T10:05:19.276Z,100.00
2022-12-27T10:07:57.218Z,100.00
2022-12-27T10:10:25.109Z,100.00
2022-12-27T10:12:59.332Z,100.00
2022-12-27T10:15:27.752Z,100.00
2022-12-27T10:18:00.190Z,100.00
2022-12-27T10:20:33.956Z,100.00
2022-12-27T10:23:06.755Z,100.00
2022-12-27T10:25:36.235Z,100.00
2022-12-27T10:28:13.373Z,100.00
2022-12-27T10:30:42.685Z,100.00
2022-12-27T10:33:19.645Z,100.00
2022-12-27T10:35:49.151Z,100.00
2022-12-27T10:38:17.275Z,100.00
2022-12-27T10:41:00.054Z,100.00
2022-12-27T10:43:33.094Z,100.00
2022-12-27T10:46:16.209Z,100.00
2022-12-27T10:51:47.721Z,100.00
2022-12-27T10:54:16.959Z,100.00
2022-12-27T10:56:45.315Z,100.00
2022-12-27T10:59:18.372Z,100.00
2022-12-27T11:02:14.259Z,100.00
2022-12-27T11:04:56.494Z,100.00
2022-12-27T11:07:29.102Z,100.00
2022-12-27T11:10:18.019Z,100.00
2022-12-27T11:12:58.282Z,100.00
2022-12-27T11:15:27.789Z,100.00
2022-12-27T11:17:58.010Z,100.00
2022-12-27T11:20:26.215Z,100.00
2022-12-27T11:22:56.878Z,100.00
2022-12-27T11:25:26.827Z,100.00
2022-12-27T11:27:58.430Z,100.00
2022-12-27T11:30:34.507Z,100.00
2022-12-27T11:33:25.324Z,100.00
2022-12-27T11:35:54.879Z,100.00
2022-12-27T11:38:26.057Z,100.00
2022-12-27T11:41:03.483Z,100.00
2022-12-27T11:43:33.698Z,100.00
2022-12-27T11:46:04.369Z,100.00
2022-12-27T11:48:41.204Z,100.00
2022-12-27T11:51:24.996Z,100.00
2022-12-27T11:54:06.815Z,100.00
2022-12-27T11:56:39.728Z,100.00
2022-12-27T11:59:08.300Z,100.00
2022-12-27T12:01:55.031Z,100.00
2022-12-27T12:04:41.628Z,100.00
2022-12-27T12:07:26.345Z,100.00
2022-12-27T12:10:03.510Z,100.00
2022-12-27T12:12:44.071Z,100.00
2022-12-27T12:15:30.920Z,100.00
2022-12-27T12:18:14.518Z,99.96
2022-12-27T12:20:50.531Z,99.96
2022-12-27T12:23:30.072Z,99.88
2022-12-27T12:26:09.783Z,99.80
2022-12-27T12:29:00.560Z,99.90
2022-12-27T12:31:46.907Z,99.85
2022-12-27T12:34:15.166Z,99.70
2022-12-27T12:37:02.529Z,99.64
2022-12-27T12:39:33.560Z,99.51
2022-12-27T12:42:11.213Z,99.57
2022-12-27T12:45:02.785Z,99.56
2022-12-27T12:47:49.894Z,99.60
2022-12-27T12:50:33.302Z,99.55
2022-12-27T12:53:02.153Z,99.51
2022-12-27T12:55:34.951Z,99.47
2022-12-27T12:58:13.233Z,99.38
2022-12-27T13:00:47.225Z,99.21
2022-12-27T13:03:30.742Z,99.13
2022-12-27T13:05:58.642Z,98.94
2022-12-27T13:08:40.292Z,98.84
2022-12-27T13:11:28.720Z,98.74
2022-12-27T13:14:05.849Z,98.63
2022-12-27T13:16:46.381Z,98.57
2022-12-27T13:19:43.617Z,98.57
2022-12-27T13:22:26.612Z,98.35
2022-12-27T13:25:10.631Z,98.37
2022-12-27T13:28:02.419Z,98.33
2022-12-27T13:30:38.675Z,98.20
2022-12-27T13:33:33.321Z,98.18
2022-12-27T13:36:11.709Z,98.17
2022-12-27T13:38:48.671Z,98.14
2022-12-27T13:41:30.183Z,98.07
2022-12-27T13:44:18.196Z,98.03
2022-12-27T13:47:01.486Z,97.95
2022-12-27T13:49:35.441Z,97.85
2022-12-27T13:52:10.770Z,97.75
2022-12-27T13:54:50.759Z,97.76
2022-12-27T13:57:38.648Z,97.74
2022-12-27T14:00:19.900Z,97.67
2022-12-27T14:02:59.149Z,97.65
2022-12-27T14:05:39.373Z,97.62
2022-12-27T14:08:19.594Z,97.57
2022-12-27T14:10:55.319Z,97.54
2022-12-27T14:13:32.728Z,97.46
2022-12-27T14:16:19.333Z,97.43
2022-12-27T14:18:56.485Z,97.40
2022-12-27T14:21:33.474Z,97.35
2022-12-27T14:24:18.119Z,97.24
2022-12-27T14:26:55.276Z,97.22
2022-12-27T14:29:42.931Z,97.20
2022-12-27T14:32:13.882Z,97.18
2022-12-27T14:35:08.458Z,97.20
2022-12-27T14:37:55.160Z,97.12
2022-12-27T14:40:23.308Z,97.09
2022-12-27T14:43:10.123Z,97.04
2022-12-27T14:45:51.031Z,97.01
2022-12-27T14:48:44.697Z,96.97
2022-12-27T14:54:22.546Z,97.01
2022-12-27T14:56:59.826Z,96.98
2022-12-27T14:59:42.973Z,96.96
2022-12-27T15:02:16.764Z,96.95
2022-12-27T15:05:11.792Z,96.96
2022-12-27T15:07:43.185Z,96.89
2022-12-27T15:10:18.511Z,96.88
2022-12-27T15:13:01.712Z,96.90
2022-12-27T15:15:30.129Z,96.88
2022-12-27T15:18:16.850Z,96.92
2022-12-27T15:20:44.694Z,97.01
2022-12-27T15:23:15.571Z,96.99
2022-12-27T15:25:50.332Z,97.05
2022-12-27T15:28:19.829Z,97.09
2022-12-27T15:31:00.631Z,97.04
2022-12-27T15:33:31.689Z,97.06
2022-12-27T15:36:05.801Z,97.05
2022-12-27T15:38:53.404Z,97.06
2022-12-27T15:41:54.315Z,97.10
2022-12-27T15:44:31.353Z,97.01
2022-12-27T15:47:24.934Z,97.00
2022-12-27T15:50:12.977Z,97.02
2022-12-27T15:52:47.157Z,97.07
2022-12-27T15:55:23.551Z,97.05
2022-12-27T15:57:54.376Z,97.10
2022-12-27T16:00:34.337Z,97.14
2022-12-27T16:03:23.667Z,97.21
2022-12-27T16:05:53.040Z,97.22
2022-12-27T16:08:26.977Z,97.28
2022-12-27T16:10:55.054Z,97.27
2022-12-27T16:13:41.381Z,97.32
2022-12-27T16:16:28.854Z,97.37
2022-12-27T16:19:00.826Z,97.44
2022-12-27T16:21:40.668Z,97.46
2022-12-27T16:24:20.391Z,97.51
2022-12-27T16:27:02.966Z,97.55
2022-12-27T16:29:35.652Z,97.66
2022-12-27T16:32:21.129Z,97.71
2022-12-27T16:35:13.462Z,97.75
2022-12-27T16:37:52.889Z,97.87
2022-12-27T16:40:28.783Z,97.81
2022-12-27T16:42:56.602Z,97.94
2022-12-27T16:45:37.008Z,97.93
2022-12-27T16:48:06.651Z,97.96
2022-12-27T16:50:41.178Z,97.96
2022-12-27T16:53:13.074Z,98.01
2022-12-27T16:56:01.293Z,98.01
2022-12-27T16:58:32.005Z,98.08
2022-12-27T17:01:04.727Z,98.13
2022-12-27T17:03:36.503Z,98.08
2022-12-27T17:06:33.969Z,98.18
2022-12-27T17:09:09.245Z,98.19
2022-12-27T17:12:01.505Z,98.18
2022-12-27T17:14:34.112Z,98.36
2022-12-27T17:17:11.666Z,98.47
2022-12-27T17:19:39.849Z,98.41
2022-12-27T17:22:13.120Z,98.39
2022-12-27T17:24:42.155Z,98.31
2022-12-27T17:27:44.135Z,98.30
2022-12-27T17:30:17.880Z,98.25
2022-12-27T17:33:04.967Z,98.29
2022-12-27T17:35:56.432Z,98.34
2022-12-27T17:38:50.929Z,98.38
2022-12-27T17:41:49.673Z,98.35
2022-12-27T17:44:49.936Z,98.42
2022-12-27T17:47:18.215Z,98.45
2022-12-27T17:49:47.330Z,98.53
2022-12-27T17:52:34.818Z,98.50
2022-12-27T17:55:41.576Z,98.57
2022-12-27T17:58:11.545Z,98.48
2022-12-27T18:00:46.430Z,98.49
2022-12-27T18:03:14.909Z,98.50
2022-12-27T18:05:44.541Z,98.51
2022-12-27T18:08:23.114Z,98.54
2022-12-27T18:10:51.287Z,98.53
2022-12-27T18:13:21.037Z,98.59
2022-12-27T18:15:51.130Z,98.63
2022-12-27T18:18:23.509Z,98.68
2022-12-27T18:20:55.389Z,98.80
2022-12-27T18:23:23.527Z,98.77
2022-12-27T18:25:56.063Z,98.75
2022-12-27T18:28:34.438Z,98.80
2022-12-27T18:31:14.699Z,98.72
2022-12-27T18:33:54.035Z,98.80
2022-12-27T18:36:24.644Z,98.87
2022-12-27T18:39:22.054Z,98.80
2022-12-27T18:41:52.880Z,98.88
2022-12-27T18:44:27.035Z,98.89
2022-12-27T18:46:58.257Z,98.89
2022-12-27T18:49:28.477Z,98.91
2022-12-27T18:51:56.937Z,98.87
2022-12-27T18:54:35.618Z,98.89
2022-12-27T18:57:05.747Z,98.95
2022-12-27T18:59:39.324Z,98.98
2022-12-27T19:02:27.088Z,98.95
2022-12-27T19:05:13.884Z,99.05
2022-12-27T19:07:43.988Z,99.14
2022-12-27T19:10:23.928Z,99.10
2022-12-27T19:12:53.110Z,99.07
2022-12-27T19:15:36.670Z,99.15
2022-12-27T19:18:06.970Z,99.19
2022-12-27T19:20:36.475Z,99.21
2022-12-27T19:23:25.605Z,99.22
2022-12-27T19:26:12.871Z,99.29
2022-12-27T19:28:41.186Z,99.23
2022-12-27T19:31:16.427Z,99.15
2022-12-27T19:33:59.466Z,99.14
2022-12-27T19:36:47.708Z,99.13
2022-12-27T19:39:21.701Z,99.16
2022-12-27T19:41:49.877Z,99.11
2022-12-27T19:44:18.586Z,99.26
2022-12-27T19:46:46.657Z,99.22
2022-12-27T19:52:02.598Z,99.31
2022-12-27T19:54:30.818Z,99.22
2022-12-27T19:56:58.847Z,99.22
2022-12-27T19:59:27.432Z,99.27
2022-12-27T20:01:55.645Z,99.29
2022-12-27T20:04:23.745Z,99.31
2022-12-27T20:06:52.049Z,99.25
2022-12-27T20:09:20.733Z,99.31
2022-12-27T20:11:49.325Z,99.29
2022-12-27T20:14:19.542Z,99.24
2022-12-27T20:16:47.792Z,99.27
2022-12-27T20:19:18.391Z,99.29
2022-12-27T20:21:46.766Z,99.22
2022-12-27T20:24:15.072Z,99.20
2022-12-27T20:26:44.060Z,99.28
2022-12-27T20:29:12.965Z,99.23
2022-12-27T20:31:45.005Z,99.27
2022-12-27T20:34:13.452Z,99.33
2022-12-27T20:36:42.300Z,99.24
2022-12-27T20:39:10.303Z,99.44
2022-12-27T20:41:38.664Z,99.43
2022-12-27T20:44:08.373Z,99.47
2022-12-27T20:46:36.386Z,99.34
2022-12-27T20:49:07.244Z,99.37
2022-12-27T20:51:35.346Z,99.37
2022-12-27T20:54:03.987Z,99.36
2022-12-27T20:56:32.158Z,99.43
2022-12-27T20:59:01.749Z,99.38
2022-12-27T21:01:29.935Z,99.41
2022-12-27T21:03:58.091Z,99.39
2022-12-27T21:06:27.978Z,99.50
2022-12-27T21:08:57.955Z,99.42
2022-12-27T21:11:28.615Z,99.46
2022-12-27T21:13:57.240Z,99.36
2022-12-27T21:16:27.169Z,99.53
2022-12-27T21:18:55.738Z,99.43
2022-12-27T21:21:28.006Z,99.51
2022-12-27T21:23:58.334Z,99.50
2022-12-27T21:26:28.516Z,99.42
2022-12-27T21:28:59.908Z,99.42
2022-12-27T21:31:28.376Z,99.40
2022-12-27T21:33:57.663Z,99.35
2022-12-27T21:36:28.198Z,99.37
2022-12-27T21:38:56.241Z,99.44
2022-12-27T21:41:25.781Z,99.40
2022-12-27T21:43:54.224Z,99.46
2022-12-27T21:46:26.577Z,99.49
2022-12-27T21:48:56.052Z,99.44
2022-12-27T21:51:24.772Z,99.49
2022-12-27T21:53:52.864Z,99.61
2022-12-27T21:56:20.784Z,99.59
2022-12-27T21:58:49.286Z,99.72
2022-12-27T22:01:18.618Z,99.80
2022-12-27T22:03:48.573Z,99.77
2022-12-27T22:06:18.000Z,99.90
2022-12-27T22:08:47.078Z,99.85
2022-12-27T22:11:15.733Z,99.90
2022-12-27T22:13:44.536Z,99.82
2022-12-27T22:16:14.263Z,99.85
2022-12-27T22:18:43.307Z,99.82
2022-12-27T22:21:13.032Z,99.88
2022-12-27T22:23:42.684Z,99.93
2022-12-27T22:26:18.455Z,100.00
2022-12-27T22:28:46.590Z,100.00
2022-12-27T22:31:16.006Z,100.00
2022-12-27T22:33:43.989Z,100.00
2022-12-27T22:36:15.771Z,100.00
2022-12-27T22:38:49.140Z,100.00
2022-12-27T22:41:21.601Z,100.00
2022-12-27T22:43:51.376Z,100.00
2022-12-27T22:46:20.254Z,100.00
2022-12-27T22:48:49.452Z,100.00
2022-12-27T22:51:18.870Z,100.00
2022-12-27T22:53:47.015Z,100.00
2022-12-27T22:56:16.614Z,100.00
2022-12-27T22:58:45.544Z,100.00
2022-12-27T23:01:23.936Z,100.00
2022-12-27T23:03:51.886Z,100.00
2022-12-27T23:06:20.267Z,100.00
2022-12-27T23:08:48.452Z,100.00
2022-12-27T23:11:18.210Z,100.00
2022-12-27T23:13:47.496Z,100.00
2022-12-27T23:16:15.756Z,100.00
2022-12-27T23:18:43.899Z,100.00
2022-12-27T23:21:21.017Z,100.00
2022-12-27T23:23:53.030Z,100.00
2022-12-27T23:26:22.177Z,100.00
2022-12-27T23:28:51.493Z,100.00
2022-12-27T23:31:20.659Z,100.00
2022-12-27T23:33:48.687Z,100.00
2022-12-27T23:36:17.025Z,100.00
2022-12-27T23:38:45.406Z,100.00
2022-12-27T23:41:17.930Z,100.00
2022-12-27T23:43:55.303Z,100.00
2022-12-27T23:46:27.750Z,100.00
2022-12-27T23:48:56.660Z,100.00
2022-12-27T23:51:27.243Z,100.00
2022-12-27T23:53:55.171Z,100.00
2022-12-27T23:56:24.383Z,100.00
2022-12-27T23:58:53.557Z,100.00
